This is the latest recevied weather packets stored in our database for station/object PD0HRY-12. If no packets are shown the sender has not sent any weather packets the latest 10 day(s).
| Time | Temp. | Humidity | Pressure | Rain* | Wind** | Luminosity | Snow |
|---|---|---|---|---|---|---|---|
| 1777840200 | 14.44° C | 94% | 1004 hPa | 1.27 mm | - | - | - |
| 1777838404 | 15° C | 93% | 1004 hPa | 14.99 mm | - | - | - |
| 1777836602 | 15° C | 92% | 1004 hPa | 14.99 mm | - | - | - |
| 1777834800 | 15.56° C | 90% | 1004 hPa | 1.78 mm | - | - | - |
| 1777833003 | 15.56° C | 89% | 1003 hPa | - | - | - | - |
| 1777831202 | 15.56° C | 89% | 1003 hPa | - | - | - | - |
| 1777827603 | 15.56° C | 91% | 1003 hPa | - | - | - | - |
| 1777825802 | 15.56° C | 88% | 1003 hPa | - | - | - | - |
| 1777824000 | 16.11° C | 88% | 1003 hPa | - | - | - | - |
| 1777822203 | 16.11° C | 88% | 1003 hPa | - | - | - | - |
| 1777820401 | 15.56° C | 88% | 1003 hPa | 3.56 mm | - | - | - |
| 1777818605 | 15.56° C | 89% | 1003 hPa | 9.65 mm | - | - | - |
| 1777816803 | 15.56° C | 91% | 1003 hPa | 24.64 mm | - | - | - |
| 1777815001 | 15.56° C | 88% | 1004 hPa | 28.19 mm | - | - | - |
| 1777813200 | 15.56° C | 87% | 1003 hPa | 23.37 mm | - | - | - |
| 1777811403 | 17.22° C | 85% | 1004 hPa | 11.94 mm | - | - | - |
| 1777809601 | 18.89° C | 77% | 1003 hPa | - | - | - | - |
| 1777807804 | 19.44° C | 71% | 1004 hPa | - | - | - | - |
| 1777806003 | 19.44° C | 70% | 1003 hPa | - | - | - | - |
| 1777804201 | 20° C | 70% | 1003 hPa | - | - | - | - |
| 1777802404 | 19.44° C | 72% | 1003 hPa | - | - | - | - |
| 1777800603 | 19.44° C | 76% | 1003 hPa | - | - | - | - |
| 1777798801 | 18.89° C | 77% | 1003 hPa | - | - | - | - |
| 1777797004 | 18.89° C | 77% | 1003 hPa | - | - | - | - |
| 1777795202 | 18.33° C | 78% | 1003 hPa | - | - | - | - |
* Rain latest hour (hover to see other rain measurements)
** Current wind speed in m/s (hover to see current wind gust speed)